Nelson, Ohio
Current Conditions -  °F | °C
As of 10:00 AM on Sunday 23 Nov 2014 (Local Time) from KPOV Reporting Station
Moderate Rain Moderate Rain  
Wind Chill: 41°   Ceiling: 4400
Heat Index: 45°   Visibility: 10mi
Dew Point: 35°   Wind: 6mph
Humidity: 70%   Direction: 150°SSE
Pressure: 30.04"   Gusts: NA
Location:  41.3076°N, 81.0739°W
Report Text: KPOV 231500Z AUTO 15005KT 10SM RA SCT038 OVC044 07/02 A3004 RMK AO2 T00700018
Loading
Personal Weather Stations






























Interactive Weather Map New forecast layout! Learn more

10-Day Weather Forecast

Advertisements
Track Severe Weather on mobile